createdAt,value
2023-05-17T00:00:56.698Z,9.91
2023-05-17T00:01:56.753Z,9.94
2023-05-17T00:02:56.812Z,9.76
2023-05-17T00:03:56.792Z,9.79
2023-05-17T00:04:56.845Z,9.84
2023-05-17T00:05:56.828Z,9.84
2023-05-17T00:06:56.826Z,9.81
2023-05-17T00:07:56.842Z,9.78
2023-05-17T00:08:56.873Z,9.75
2023-05-17T00:09:56.894Z,9.72
2023-05-17T00:10:56.912Z,9.76
2023-05-17T00:11:56.937Z,9.76
2023-05-17T00:12:57.020Z,9.72
2023-05-17T00:13:56.990Z,9.64
2023-05-17T00:14:56.994Z,9.74
2023-05-17T00:15:57.019Z,9.65
2023-05-17T00:16:57.039Z,9.65
2023-05-17T00:17:57.089Z,9.60
2023-05-17T00:18:57.196Z,9.53
2023-05-17T00:19:57.127Z,9.60
2023-05-17T00:20:57.122Z,9.54
2023-05-17T00:21:57.144Z,9.57
2023-05-17T00:22:57.170Z,9.53
2023-05-17T00:23:57.196Z,9.47
2023-05-17T00:24:57.210Z,9.56
2023-05-17T00:25:57.226Z,9.51
2023-05-17T00:26:57.276Z,9.47
2023-05-17T00:27:57.278Z,9.53
2023-05-17T00:28:57.388Z,9.51
2023-05-17T00:29:57.327Z,9.54
2023-05-17T00:30:57.359Z,9.56
2023-05-17T00:31:57.363Z,9.46
2023-05-17T00:32:57.425Z,9.47
2023-05-17T00:33:57.405Z,9.42
2023-05-17T00:34:57.488Z,9.40
2023-05-17T00:35:57.454Z,9.35
2023-05-17T00:36:57.473Z,9.32
2023-05-17T00:37:57.492Z,9.39
2023-05-17T00:38:57.507Z,9.32
2023-05-17T00:39:57.543Z,9.31
2023-05-17T00:40:57.594Z,9.36
2023-05-17T00:41:57.574Z,9.35
2023-05-17T00:42:57.603Z,9.32
2023-05-17T00:43:57.626Z,9.26
2023-05-17T00:44:57.882Z,9.32
2023-05-17T00:45:57.662Z,9.23
2023-05-17T00:46:57.686Z,9.28
2023-05-17T00:47:57.784Z,9.21
2023-05-17T00:48:57.724Z,9.21
2023-05-17T00:49:57.748Z,9.23
2023-05-17T00:50:57.771Z,9.11
2023-05-17T00:51:57.786Z,9.13
2023-05-17T00:52:57.809Z,9.14
2023-05-17T00:53:57.830Z,9.20
2023-05-17T00:54:57.858Z,9.14
2023-05-17T00:55:57.874Z,9.18
2023-05-17T00:56:57.893Z,9.14
2023-05-17T00:57:57.923Z,9.13
2023-05-17T00:58:57.937Z,9.13
2023-05-17T00:59:57.976Z,9.10
2023-05-17T01:00:58.110Z,9.10
2023-05-17T01:01:58.005Z,9.11
2023-05-17T01:02:58.140Z,9.05
2023-05-17T01:03:58.134Z,9.02
2023-05-17T01:04:58.209Z,9.08
2023-05-17T01:05:58.089Z,9.10
2023-05-17T01:06:58.123Z,8.96
2023-05-17T01:07:58.133Z,8.98
2023-05-17T01:08:58.156Z,8.99
2023-05-17T01:09:58.170Z,8.95
2023-05-17T01:10:58.226Z,8.91
2023-05-17T01:11:58.218Z,8.91
2023-05-17T01:12:58.239Z,8.89
2023-05-17T01:13:58.254Z,8.86
2023-05-17T01:14:58.286Z,8.84
2023-05-17T01:15:58.325Z,8.84
2023-05-17T01:16:58.398Z,8.76
2023-05-17T01:17:58.402Z,8.92
2023-05-17T01:18:58.523Z,8.86
2023-05-17T01:19:58.563Z,8.84
2023-05-17T01:20:58.405Z,8.79
2023-05-17T01:21:58.425Z,8.83
2023-05-17T01:22:58.444Z,8.76
2023-05-17T01:23:58.468Z,8.74
2023-05-17T01:24:58.489Z,8.70
2023-05-17T01:25:58.506Z,8.70
2023-05-17T01:26:58.532Z,8.70
2023-05-17T01:27:58.548Z,8.65
2023-05-17T01:28:58.604Z,8.77
2023-05-17T01:29:58.597Z,8.66
2023-05-17T01:30:58.623Z,8.66
2023-05-17T01:31:58.637Z,8.65
2023-05-17T01:32:58.854Z,8.73
2023-05-17T01:33:58.816Z,8.73
2023-05-17T01:34:58.696Z,8.79
2023-05-17T01:35:58.716Z,8.68
2023-05-17T01:36:58.744Z,8.71
2023-05-17T01:37:58.795Z,8.79
2023-05-17T01:38:58.781Z,8.71
2023-05-17T01:39:58.805Z,8.63
2023-05-17T01:40:58.828Z,8.68
2023-05-17T01:41:58.843Z,8.71
2023-05-17T01:42:58.871Z,8.79
2023-05-17T01:43:58.905Z,8.63
2023-05-17T01:44:58.936Z,8.73
2023-05-17T01:45:58.947Z,8.63
2023-05-17T01:46:58.946Z,8.66
2023-05-17T01:47:59.017Z,8.71
2023-05-17T01:48:59.188Z,8.68
2023-05-17T01:49:59.015Z,8.80
2023-05-17T01:50:59.034Z,8.66
2023-05-17T01:51:59.069Z,8.68
2023-05-17T01:52:59.081Z,8.62
2023-05-17T01:53:59.093Z,8.76
2023-05-17T01:54:59.127Z,8.66
2023-05-17T01:55:59.149Z,8.74
2023-05-17T01:56:59.177Z,8.65
2023-05-17T01:57:59.179Z,8.66
2023-05-17T01:58:59.236Z,8.73
2023-05-17T01:59:59.223Z,8.73
2023-05-17T02:00:59.243Z,8.70
2023-05-17T02:01:59.266Z,8.68
2023-05-17T02:02:59.324Z,8.73
2023-05-17T02:03:59.333Z,8.70
2023-05-17T02:04:59.416Z,8.66
2023-05-17T02:05:59.351Z,8.68
2023-05-17T02:06:59.377Z,8.66
2023-05-17T02:07:59.400Z,8.66
2023-05-17T02:08:59.410Z,8.63
2023-05-17T02:09:59.437Z,8.66
2023-05-17T02:10:59.455Z,8.66
2023-05-17T02:11:59.474Z,8.55
2023-05-17T02:12:59.497Z,8.66
2023-05-17T02:13:59.518Z,8.63
2023-05-17T02:14:59.542Z,8.53
2023-05-17T02:15:59.563Z,8.47
2023-05-17T02:16:59.586Z,8.52
2023-05-17T02:17:59.688Z,8.58
2023-05-17T02:18:59.729Z,8.50
2023-05-17T02:19:59.647Z,8.55
2023-05-17T02:20:59.756Z,8.48
2023-05-17T02:21:59.691Z,8.50
2023-05-17T02:22:59.720Z,8.55
2023-05-17T02:23:59.739Z,8.53
2023-05-17T02:24:59.780Z,8.55
2023-05-17T02:25:59.771Z,8.53
2023-05-17T02:26:59.796Z,8.55
2023-05-17T02:27:59.825Z,8.55
2023-05-17T02:28:59.859Z,8.55
2023-05-17T02:29:59.866Z,8.48
2023-05-17T02:30:59.891Z,8.48
2023-05-17T02:31:59.917Z,8.55
2023-05-17T02:32:59.982Z,8.47
2023-05-17T02:34:00.066Z,8.50
2023-05-17T02:34:59.967Z,8.44
2023-05-17T02:35:59.985Z,8.43
2023-05-17T02:37:00.076Z,8.38
2023-05-17T02:38:00.030Z,8.45
2023-05-17T02:39:00.054Z,8.41
2023-05-17T02:40:00.080Z,8.41
2023-05-17T02:41:00.102Z,8.44
2023-05-17T02:42:00.141Z,8.38
2023-05-17T02:43:00.141Z,8.40
2023-05-17T02:44:00.164Z,8.43
2023-05-17T02:45:00.179Z,8.40
2023-05-17T02:46:00.214Z,8.43
2023-05-17T02:47:00.254Z,8.43
2023-05-17T02:48:00.256Z,8.29
2023-05-17T02:49:00.255Z,8.43
2023-05-17T02:50:00.281Z,8.44
2023-05-17T02:51:00.293Z,8.40
2023-05-17T02:52:00.314Z,8.43
2023-05-17T02:53:00.347Z,8.47
2023-05-17T02:54:00.359Z,8.50
2023-05-17T02:55:00.413Z,8.47
2023-05-17T02:56:00.423Z,8.41
2023-05-17T02:57:00.421Z,8.47
2023-05-17T02:58:00.469Z,8.36
2023-05-17T02:59:00.466Z,8.47
2023-05-17T03:00:00.495Z,8.37
2023-05-17T03:01:00.520Z,8.34
2023-05-17T03:02:00.528Z,8.33
2023-05-17T03:03:00.626Z,8.33
2023-05-17T03:04:00.814Z,8.29
2023-05-17T03:05:00.593Z,8.33
2023-05-17T03:06:00.624Z,8.30
2023-05-17T03:07:00.639Z,8.28
2023-05-17T03:08:00.667Z,8.30
2023-05-17T03:09:00.760Z,8.26
2023-05-17T03:10:00.694Z,8.34
2023-05-17T03:11:00.722Z,8.34
2023-05-17T03:12:00.749Z,8.28
2023-05-17T03:13:00.758Z,8.29
2023-05-17T03:14:00.776Z,8.30
2023-05-17T03:15:00.808Z,8.28
2023-05-17T03:16:00.829Z,8.22
2023-05-17T03:17:00.836Z,8.33
2023-05-17T03:18:00.940Z,8.36
2023-05-17T03:19:01.046Z,8.19
2023-05-17T03:20:00.912Z,8.34
2023-05-17T03:21:00.921Z,8.36
2023-05-17T03:22:00.948Z,8.30
2023-05-17T03:23:00.958Z,8.18
2023-05-17T03:24:01.009Z,8.20
2023-05-17T03:25:01.245Z,8.23
2023-05-17T03:26:01.028Z,8.22
2023-05-17T03:27:01.049Z,8.22
2023-05-17T03:28:01.072Z,8.26
2023-05-17T03:29:01.092Z,8.28
2023-05-17T03:30:01.112Z,8.18
2023-05-17T03:31:01.192Z,8.23
2023-05-17T03:32:01.147Z,8.22
2023-05-17T03:33:01.231Z,8.28
2023-05-17T03:34:01.290Z,8.20
2023-05-17T03:35:01.231Z,8.20
2023-05-17T03:36:01.227Z,8.19
2023-05-17T03:37:01.249Z,8.19
2023-05-17T03:38:01.278Z,8.20
2023-05-17T03:39:01.303Z,8.26
2023-05-17T03:40:01.322Z,8.18
2023-05-17T03:41:01.408Z,8.28
2023-05-17T03:42:01.352Z,8.19
2023-05-17T03:43:01.405Z,8.22
2023-05-17T03:44:01.401Z,8.26
2023-05-17T03:45:01.416Z,8.15
2023-05-17T03:46:01.453Z,8.29
2023-05-17T03:47:01.458Z,8.28
2023-05-17T03:48:01.491Z,8.23
2023-05-17T03:49:01.544Z,8.23
2023-05-17T03:50:01.517Z,8.36
2023-05-17T03:51:01.537Z,8.30
2023-05-17T03:52:01.564Z,8.30
2023-05-17T03:53:01.579Z,8.34
2023-05-17T03:54:01.627Z,8.37
2023-05-17T03:55:01.654Z,8.33
2023-05-17T03:56:01.640Z,8.45
2023-05-17T03:57:01.735Z,8.56
2023-05-17T03:58:01.694Z,8.53
2023-05-17T03:59:01.774Z,8.68
2023-05-17T04:00:01.760Z,8.70
2023-05-17T04:01:01.749Z,8.68
2023-05-17T04:02:01.766Z,8.87
2023-05-17T04:03:01.833Z,8.87
2023-05-17T04:04:01.830Z,9.08
2023-05-17T04:05:01.892Z,9.11
2023-05-17T04:06:01.850Z,9.23
2023-05-17T04:07:01.872Z,9.36
2023-05-17T04:08:01.893Z,9.42
2023-05-17T04:09:01.911Z,9.53
2023-05-17T04:10:01.949Z,9.54
2023-05-17T04:11:01.967Z,9.61
2023-05-17T04:12:01.989Z,9.84
2023-05-17T04:13:02.127Z,9.93
2023-05-17T04:14:02.024Z,10.11
2023-05-17T04:15:02.040Z,10.33
2023-05-17T04:16:02.064Z,10.38
2023-05-17T04:17:02.122Z,10.63
2023-05-17T04:18:02.157Z,10.76
2023-05-17T04:19:02.228Z,10.86
2023-05-17T04:20:02.272Z,11.15
2023-05-17T04:21:02.227Z,11.44
2023-05-17T04:22:02.209Z,11.46
2023-05-17T04:23:02.227Z,11.61
2023-05-17T04:24:02.237Z,11.73
2023-05-17T04:25:02.263Z,11.85
2023-05-17T04:26:02.289Z,11.95
2023-05-17T04:27:03.684Z,12.01
2023-05-17T04:28:02.339Z,12.05
2023-05-17T04:29:02.386Z,12.12
2023-05-17T04:30:02.386Z,12.13
2023-05-17T04:31:02.444Z,12.29
2023-05-17T04:32:02.424Z,12.32
2023-05-17T04:33:02.511Z,12.39
2023-05-17T04:34:02.576Z,12.47
2023-05-17T04:35:02.482Z,12.47
2023-05-17T04:36:02.523Z,12.52
2023-05-17T04:37:02.533Z,12.60
2023-05-17T04:38:02.550Z,12.60
2023-05-17T04:39:02.571Z,12.75
2023-05-17T04:40:02.613Z,12.79
2023-05-17T04:41:02.617Z,12.62
2023-05-17T04:42:02.637Z,12.53
2023-05-17T04:43:02.661Z,12.54
2023-05-17T04:44:02.699Z,12.46
2023-05-17T04:45:02.803Z,12.34
2023-05-17T04:46:02.740Z,12.19
2023-05-17T04:47:02.753Z,12.13
2023-05-17T04:48:02.815Z,12.27
2023-05-17T04:49:02.879Z,12.14
2023-05-17T04:50:02.821Z,12.13
2023-05-17T04:51:02.845Z,12.13
2023-05-17T04:52:05.333Z,12.01
2023-05-17T04:53:02.895Z,11.86
2023-05-17T04:54:02.915Z,11.72
2023-05-17T04:55:02.935Z,11.69
2023-05-17T04:56:02.969Z,11.52
2023-05-17T04:57:02.997Z,11.42
2023-05-17T04:58:03.008Z,11.33
2023-05-17T04:59:03.024Z,11.36
2023-05-17T05:00:03.059Z,11.27
2023-05-17T05:01:03.075Z,11.19
2023-05-17T05:02:03.094Z,11.40
2023-05-17T05:03:03.230Z,11.51
2023-05-17T05:04:03.254Z,11.57
2023-05-17T05:05:03.332Z,11.67
2023-05-17T05:06:03.196Z,11.73
2023-05-17T05:07:03.217Z,11.73
2023-05-17T05:08:03.244Z,11.72
2023-05-17T05:09:03.256Z,11.73
2023-05-17T05:10:03.285Z,11.73
2023-05-17T05:11:03.299Z,11.76
2023-05-17T05:12:03.319Z,11.83
2023-05-17T05:13:03.361Z,11.94
2023-05-17T05:14:03.366Z,12.12
2023-05-17T05:15:03.384Z,12.39
2023-05-17T05:16:03.414Z,12.62
2023-05-17T05:17:03.589Z,12.72
2023-05-17T05:18:03.579Z,12.74
2023-05-17T05:19:03.734Z,12.77
2023-05-17T05:20:03.520Z,12.57
2023-05-17T05:21:03.522Z,12.46
2023-05-17T05:22:03.552Z,12.27
2023-05-17T05:23:03.568Z,12.10
2023-05-17T05:24:03.594Z,11.82
2023-05-17T05:25:03.618Z,11.76
2023-05-17T05:26:03.641Z,11.60
2023-05-17T05:27:05.585Z,11.58
2023-05-17T05:28:03.686Z,11.42
2023-05-17T05:29:03.705Z,11.47
2023-05-17T05:30:03.735Z,11.46
2023-05-17T05:31:03.753Z,11.39
2023-05-17T05:32:03.778Z,11.43
2023-05-17T05:33:03.980Z,11.44
2023-05-17T05:34:03.858Z,11.37
2023-05-17T05:35:03.848Z,11.44
2023-05-17T05:36:03.870Z,11.49
2023-05-17T05:37:03.889Z,11.61
2023-05-17T05:38:03.914Z,11.72
2023-05-17T05:39:03.956Z,11.86
2023-05-17T05:40:03.973Z,11.96
2023-05-17T05:41:03.990Z,12.19
2023-05-17T05:42:04.008Z,12.46
2023-05-17T05:43:04.030Z,12.70
2023-05-17T05:44:04.060Z,12.87
2023-05-17T05:45:04.088Z,12.89
2023-05-17T05:46:04.102Z,12.86
2023-05-17T05:47:04.143Z,12.86
2023-05-17T05:48:04.217Z,12.83
2023-05-17T05:49:04.466Z,12.82
2023-05-17T05:50:04.199Z,12.90
2023-05-17T05:51:04.224Z,12.96
2023-05-17T05:52:04.255Z,13.29
2023-05-17T05:53:17.455Z,13.51
2023-05-17T05:54:04.318Z,13.78
2023-05-17T05:55:04.345Z,14.09
2023-05-17T05:56:04.346Z,14.45
2023-05-17T05:57:04.387Z,14.52
2023-05-17T05:58:04.522Z,14.70
2023-05-17T05:59:04.428Z,14.78
2023-05-17T06:00:04.450Z,15.13
2023-05-17T06:01:06.126Z,15.35
2023-05-17T06:02:04.503Z,15.68
2023-05-17T06:03:04.591Z,15.97
2023-05-17T06:04:04.553Z,16.25
2023-05-17T06:05:04.660Z,16.34
2023-05-17T06:06:04.703Z,16.56
2023-05-17T06:07:04.711Z,16.67
2023-05-17T06:08:04.656Z,16.63
2023-05-17T06:09:04.681Z,16.50
2023-05-17T06:10:04.718Z,16.60
2023-05-17T06:11:04.740Z,16.63
2023-05-17T06:12:04.765Z,16.68
2023-05-17T06:13:04.800Z,16.89
2023-05-17T06:14:04.820Z,16.85
2023-05-17T06:15:04.854Z,16.78
2023-05-17T06:16:04.873Z,16.46
2023-05-17T06:17:04.900Z,16.56
2023-05-17T06:18:05.071Z,16.50
2023-05-17T06:19:04.997Z,16.53
2023-05-17T06:20:05.127Z,16.70
2023-05-17T06:21:05.100Z,16.81
2023-05-17T06:22:05.039Z,17.01
2023-05-17T06:23:05.108Z,16.86
2023-05-17T06:24:05.298Z,16.97
2023-05-17T06:25:05.125Z,16.98
2023-05-17T06:26:05.149Z,17.07
2023-05-17T06:27:05.183Z,17.21
2023-05-17T06:28:05.205Z,17.40
2023-05-17T06:29:05.229Z,17.48
2023-05-17T06:30:07.284Z,17.54
2023-05-17T06:31:05.324Z,17.71
2023-05-17T06:32:05.321Z,17.82
2023-05-17T06:33:05.511Z,17.93
2023-05-17T06:34:05.593Z,17.89
2023-05-17T06:35:05.402Z,18.10
2023-05-17T06:36:05.442Z,18.11
2023-05-17T06:37:05.702Z,17.92
2023-05-17T06:38:05.492Z,17.74
2023-05-17T06:39:05.583Z,17.78
2023-05-17T06:40:14.995Z,17.75
2023-05-17T06:41:05.570Z,17.86
2023-05-17T06:42:05.605Z,17.93
2023-05-17T06:43:05.632Z,18.10
2023-05-17T06:44:05.666Z,18.18
2023-05-17T06:45:05.688Z,18.11
2023-05-17T06:46:05.825Z,18.00
2023-05-17T06:47:05.750Z,17.97
2023-05-17T06:48:05.849Z,17.86
2023-05-17T06:49:05.902Z,17.48
2023-05-17T06:50:05.843Z,16.98
2023-05-17T06:51:06.442Z,16.75
2023-05-17T06:52:05.916Z,16.20
2023-05-17T06:53:06.064Z,15.80
2023-05-17T06:54:05.950Z,15.57
2023-05-17T06:55:05.987Z,15.47
2023-05-17T06:56:06.012Z,15.28
2023-05-17T06:57:06.032Z,15.09
2023-05-17T06:58:06.072Z,14.95
2023-05-17T06:59:06.095Z,14.73
2023-05-17T07:00:06.115Z,14.50
2023-05-17T07:01:06.147Z,14.35
2023-05-17T07:02:06.170Z,14.20
2023-05-17T07:03:06.297Z,14.04
2023-05-17T07:04:06.271Z,13.87
2023-05-17T07:05:06.285Z,13.78
2023-05-17T07:06:06.273Z,13.64
2023-05-17T07:07:06.297Z,13.55
2023-05-17T07:08:06.347Z,13.39
2023-05-17T07:09:06.486Z,13.30
2023-05-17T07:10:06.383Z,13.30
2023-05-17T07:11:06.400Z,13.41
2023-05-17T07:12:06.420Z,13.48
2023-05-17T07:13:06.459Z,13.54
2023-05-17T07:14:06.478Z,13.57
2023-05-17T07:15:06.499Z,13.60
2023-05-17T07:16:06.526Z,13.55
2023-05-17T07:17:06.552Z,13.44
2023-05-17T07:18:06.927Z,13.44
2023-05-17T07:19:06.683Z,13.32
2023-05-17T07:20:06.837Z,13.39
2023-05-17T07:21:06.654Z,13.55
2023-05-17T07:22:06.701Z,13.66
2023-05-17T07:23:06.704Z,13.75
2023-05-17T07:24:06.727Z,13.84
2023-05-17T07:25:06.852Z,13.99
2023-05-17T07:26:06.776Z,14.04
2023-05-17T07:27:06.801Z,14.20
2023-05-17T07:28:06.828Z,14.22
2023-05-17T07:29:06.859Z,14.22
2023-05-17T07:30:06.878Z,14.17
2023-05-17T07:31:06.899Z,14.04
2023-05-17T07:32:06.928Z,13.96
2023-05-17T07:33:06.970Z,13.95
2023-05-17T07:34:07.022Z,14.00
2023-05-17T07:35:07.002Z,13.97
2023-05-17T07:36:07.048Z,13.87
2023-05-17T07:37:07.054Z,13.79
2023-05-17T07:38:07.069Z,13.73
2023-05-17T07:39:07.111Z,13.69
2023-05-17T07:40:07.134Z,13.75
2023-05-17T07:41:07.422Z,13.78
2023-05-17T07:42:07.177Z,13.66
2023-05-17T07:43:07.204Z,13.60
2023-05-17T07:44:07.225Z,13.59
2023-05-17T07:45:07.250Z,13.48
2023-05-17T07:46:07.269Z,13.39
2023-05-17T07:47:07.374Z,13.36
2023-05-17T07:48:07.426Z,13.38
2023-05-17T07:49:07.499Z,13.42
2023-05-17T07:50:07.378Z,13.55
2023-05-17T07:51:07.393Z,13.52
2023-05-17T07:52:07.445Z,13.57
2023-05-17T07:53:07.445Z,13.62
2023-05-17T07:54:07.468Z,13.67
2023-05-17T07:55:07.499Z,13.64
2023-05-17T07:56:07.530Z,13.60
2023-05-17T07:57:07.649Z,13.70
2023-05-17T07:58:07.566Z,13.62
2023-05-17T07:59:07.591Z,13.57
2023-05-17T08:00:07.670Z,13.54
2023-05-17T08:01:07.659Z,13.57
2023-05-17T08:02:07.663Z,13.73
2023-05-17T08:03:07.783Z,13.64
2023-05-17T08:04:07.722Z,13.71
2023-05-17T08:05:07.736Z,13.77
2023-05-17T08:06:07.775Z,13.91
2023-05-17T08:07:07.795Z,13.89
2023-05-17T08:08:07.810Z,14.02
2023-05-17T08:09:07.836Z,14.09
2023-05-17T08:10:07.857Z,14.14
2023-05-17T08:11:07.892Z,14.14
2023-05-17T08:12:07.922Z,14.25
2023-05-17T08:13:07.936Z,14.33
2023-05-17T08:14:07.965Z,14.33
2023-05-17T08:15:07.982Z,14.47
2023-05-17T08:16:13.530Z,14.42
2023-05-17T08:17:08.044Z,14.28
2023-05-17T08:18:08.161Z,14.24
2023-05-17T08:19:08.167Z,14.28
2023-05-17T08:20:08.257Z,14.32
2023-05-17T08:21:08.138Z,14.28
2023-05-17T08:22:08.156Z,14.28
2023-05-17T08:23:08.180Z,14.42
2023-05-17T08:24:08.202Z,14.35
2023-05-17T08:25:08.231Z,14.43
2023-05-17T08:26:08.278Z,14.42
2023-05-17T08:27:08.279Z,14.57
2023-05-17T08:28:08.301Z,14.54
2023-05-17T08:29:08.413Z,14.57
2023-05-17T08:30:11.637Z,14.35
2023-05-17T08:31:08.382Z,14.21
2023-05-17T08:32:08.408Z,14.20
2023-05-17T08:33:08.455Z,14.04
2023-05-17T08:34:08.497Z,13.88
2023-05-17T08:35:08.483Z,13.92
2023-05-17T08:36:08.509Z,13.77
2023-05-17T08:37:08.579Z,13.70
2023-05-17T08:38:08.554Z,13.71
2023-05-17T08:39:08.606Z,13.69
2023-05-17T08:40:08.639Z,13.89
2023-05-17T08:41:08.624Z,14.00
2023-05-17T08:42:08.648Z,14.06
2023-05-17T08:43:08.682Z,14.09
2023-05-17T08:44:08.702Z,14.24
2023-05-17T08:45:08.731Z,14.22
2023-05-17T08:46:08.748Z,14.37
2023-05-17T08:47:08.786Z,14.43
2023-05-17T08:48:08.831Z,14.37
2023-05-17T08:49:08.846Z,14.43
2023-05-17T08:50:08.849Z,14.40
2023-05-17T08:51:08.876Z,14.51
2023-05-17T08:52:08.896Z,14.45
2023-05-17T08:53:08.994Z,14.45
2023-05-17T08:54:08.952Z,14.43
2023-05-17T08:55:08.979Z,14.50
2023-05-17T08:56:09.001Z,14.50
2023-05-17T08:57:09.028Z,14.46
2023-05-17T08:58:09.048Z,14.61
2023-05-17T08:59:09.079Z,14.58
2023-05-17T09:00:09.107Z,14.60
2023-05-17T09:01:09.157Z,14.72
2023-05-17T09:02:09.276Z,14.70
2023-05-17T09:03:09.236Z,14.84
2023-05-17T09:04:09.214Z,14.89
2023-05-17T09:05:09.278Z,14.94
2023-05-17T09:06:09.259Z,14.95
2023-05-17T09:07:09.276Z,14.92
2023-05-17T09:08:09.307Z,15.03
2023-05-17T09:09:09.325Z,15.20
2023-05-17T09:10:09.346Z,15.25
2023-05-17T09:11:09.374Z,15.27
2023-05-17T09:12:09.396Z,15.39
2023-05-17T09:13:09.425Z,15.43
2023-05-17T09:14:09.452Z,15.36
2023-05-17T09:15:09.480Z,15.39
2023-05-17T09:16:09.500Z,15.23
2023-05-17T09:17:09.556Z,15.29
2023-05-17T09:18:09.580Z,15.32
2023-05-17T09:19:09.634Z,15.46
2023-05-17T09:20:09.638Z,15.41
2023-05-17T09:21:09.653Z,15.47
2023-05-17T09:22:09.656Z,15.36
2023-05-17T09:23:09.721Z,15.23
2023-05-17T09:24:09.708Z,15.10
2023-05-17T09:25:09.732Z,15.03
2023-05-17T09:26:09.756Z,15.06
2023-05-17T09:27:09.789Z,15.03
2023-05-17T09:28:09.809Z,15.10
2023-05-17T09:29:09.838Z,15.09
2023-05-17T09:30:09.863Z,15.14
2023-05-17T09:31:09.889Z,15.19
2023-05-17T09:32:09.919Z,15.11
2023-05-17T09:33:09.944Z,15.28
2023-05-17T09:34:17.136Z,15.20
2023-05-17T09:36:14.488Z,15.39
2023-05-17T09:37:14.014Z,15.35
2023-05-17T09:39:18.086Z,15.35
2023-05-17T09:40:18.064Z,15.29
2023-05-17T09:42:22.574Z,15.46
2023-05-17T09:43:22.094Z,15.49
2023-05-17T09:45:15.254Z,15.57
2023-05-17T09:46:15.247Z,15.60
2023-05-17T09:48:08.800Z,15.67
2023-05-17T09:49:08.225Z,15.83
2023-05-17T09:51:12.290Z,15.96
2023-05-17T09:52:12.260Z,16.02
2023-05-17T09:54:16.770Z,15.87
2023-05-17T09:55:16.289Z,15.76
2023-05-17T09:57:20.356Z,15.90
2023-05-17T09:58:20.325Z,16.00
2023-05-17T10:00:24.859Z,15.82
2023-05-17T10:01:24.380Z,15.78
2023-05-17T10:03:28.462Z,15.71
2023-05-17T10:04:28.416Z,15.62
2023-05-17T10:06:45.181Z,15.60
2023-05-17T10:07:32.448Z,15.64
2023-05-17T10:09:36.512Z,15.71
2023-05-17T10:10:36.479Z,15.82
2023-05-17T10:12:41.001Z,15.97
2023-05-17T10:13:40.517Z,15.94
2023-05-17T10:15:44.564Z,15.92
2023-05-17T10:16:44.554Z,15.87
2023-05-17T10:18:38.403Z,15.86
2023-05-17T10:19:37.797Z,15.76
2023-05-17T10:21:41.551Z,15.75
2023-05-17T10:22:41.562Z,15.76
2023-05-17T10:24:46.068Z,15.75
2023-05-17T10:25:45.578Z,15.84
2023-05-17T10:27:38.552Z,15.83
2023-05-17T10:28:38.543Z,15.83
2023-05-17T10:30:43.061Z,16.04
2023-05-17T10:31:42.580Z,16.21
2023-05-17T10:33:46.733Z,16.24
2023-05-17T10:34:54.503Z,16.38
2023-05-17T10:36:51.126Z,16.56
2023-05-17T10:37:50.645Z,16.48
2023-05-17T10:39:54.713Z,16.27
2023-05-17T10:40:54.686Z,16.12
2023-05-17T10:42:59.272Z,16.07
2023-05-17T10:43:58.730Z,16.04
2023-05-17T10:46:02.826Z,15.89
2023-05-17T10:47:02.773Z,15.75
2023-05-17T10:49:07.406Z,15.92
2023-05-17T10:50:06.854Z,15.78
2023-05-17T10:52:10.841Z,15.80
2023-05-17T10:53:10.841Z,15.75
2023-05-17T10:55:15.359Z,15.93
2023-05-17T10:56:14.868Z,16.02
2023-05-17T10:58:07.858Z,16.15
2023-05-17T10:59:07.836Z,16.20
2023-05-17T11:01:12.347Z,16.17
2023-05-17T11:02:11.868Z,16.12
2023-05-17T11:04:15.958Z,16.20
2023-05-17T11:05:16.074Z,16.12
2023-05-17T11:07:20.921Z,16.21
2023-05-17T11:08:19.940Z,16.20
2023-05-17T11:10:23.991Z,16.21
2023-05-17T11:11:23.977Z,16.14
2023-05-17T11:13:28.532Z,16.04
2023-05-17T11:14:29.176Z,15.97
2023-05-17T11:16:32.074Z,15.97
2023-05-17T11:17:32.102Z,16.01
2023-05-17T11:19:36.614Z,16.20
2023-05-17T11:20:36.647Z,16.33
2023-05-17T11:22:29.266Z,16.63
2023-05-17T11:23:29.258Z,16.71
2023-05-17T11:25:33.797Z,16.66
2023-05-17T11:26:33.311Z,16.57
2023-05-17T11:28:26.275Z,16.50
2023-05-17T11:29:26.263Z,16.49
2023-05-17T11:31:30.793Z,16.57
2023-05-17T11:32:30.333Z,16.66
2023-05-17T11:34:34.472Z,16.63
2023-05-17T11:35:34.333Z,16.64
2023-05-17T11:37:38.888Z,16.53
2023-05-17T11:38:38.372Z,16.60
2023-05-17T11:40:42.453Z,16.66
2023-05-17T11:41:42.403Z,16.67
2023-05-17T11:43:46.941Z,16.66
2023-05-17T11:44:46.429Z,16.57
2023-05-17T11:46:50.534Z,16.50
2023-05-17T11:47:50.547Z,16.48
2023-05-17T11:49:56.494Z,16.48
2023-05-17T11:50:54.554Z,16.41
2023-05-17T11:52:58.587Z,16.39
2023-05-17T11:53:58.546Z,16.45
2023-05-17T11:56:03.082Z,16.50
2023-05-17T11:57:02.583Z,16.50
2023-05-17T11:59:06.630Z,16.67
2023-05-17T12:00:06.617Z,16.61
2023-05-17T12:02:11.631Z,16.46
2023-05-17T12:03:10.681Z,16.45
2023-05-17T12:05:14.690Z,16.43
2023-05-17T12:06:14.721Z,16.38
2023-05-17T12:08:08.230Z,16.20
2023-05-17T12:09:07.638Z,16.15
2023-05-17T12:11:11.675Z,16.02
2023-05-17T12:12:11.669Z,16.00
2023-05-17T12:15:20.183Z,16.17
2023-05-17T12:16:19.700Z,16.11
2023-05-17T12:18:12.726Z,16.56
2023-05-17T12:19:12.807Z,16.71
2023-05-17T12:21:17.188Z,16.82
2023-05-17T12:22:16.682Z,16.82
2023-05-17T12:24:20.862Z,16.94
2023-05-17T12:25:20.715Z,16.93
2023-05-17T12:27:25.234Z,17.21
2023-05-17T12:28:24.759Z,17.16
2023-05-17T12:30:29.525Z,17.19
2023-05-17T12:31:28.775Z,17.18
2023-05-17T12:33:33.346Z,17.12
2023-05-17T12:34:32.834Z,17.03
2023-05-17T12:36:36.860Z,17.00
2023-05-17T12:37:36.854Z,17.00
2023-05-17T12:39:41.380Z,17.03
2023-05-17T12:40:43.247Z,16.96
2023-05-17T12:42:44.943Z,16.81
2023-05-17T12:43:44.977Z,16.78
2023-05-17T12:45:49.443Z,16.76
2023-05-17T12:46:48.962Z,16.81
2023-05-17T12:48:53.153Z,16.85
2023-05-17T12:49:52.985Z,17.11
2023-05-17T12:51:57.572Z,17.01
2023-05-17T12:52:57.020Z,16.85
2023-05-17T12:55:01.059Z,16.73
2023-05-17T12:56:01.051Z,16.63
2023-05-17T12:57:55.554Z,16.24
2023-05-17T12:58:54.007Z,16.25
2023-05-17T13:00:58.096Z,16.09
2023-05-17T13:01:58.121Z,16.07
2023-05-17T13:04:03.177Z,16.21
2023-05-17T13:05:02.177Z,16.35
2023-05-17T13:06:55.251Z,16.60
2023-05-17T13:07:55.230Z,16.61
2023-05-17T13:09:59.751Z,16.67
2023-05-17T13:10:59.320Z,16.53
2023-05-17T13:13:03.303Z,16.33
2023-05-17T13:14:03.296Z,16.31
2023-05-17T13:16:07.823Z,16.35
2023-05-17T13:17:07.333Z,16.45
2023-05-17T13:19:11.419Z,16.58
2023-05-17T13:20:11.466Z,16.61
2023-05-17T13:22:16.893Z,16.79
2023-05-17T13:23:16.414Z,16.79
2023-05-17T13:25:20.469Z,16.83
2023-05-17T13:26:20.445Z,16.81
2023-05-17T13:28:13.945Z,16.79
2023-05-17T13:29:13.406Z,16.64
2023-05-17T13:31:17.441Z,16.61
2023-05-17T13:32:17.432Z,16.61
2023-05-17T13:34:21.957Z,16.49
2023-05-17T13:35:21.476Z,16.57
2023-05-17T13:37:25.518Z,16.60
2023-05-17T13:38:25.506Z,16.64
2023-05-17T13:40:30.189Z,16.45
2023-05-17T13:41:29.580Z,16.43
2023-05-17T13:43:33.584Z,16.27
2023-05-17T13:44:33.586Z,16.21
2023-05-17T13:46:38.110Z,16.08
2023-05-17T13:47:37.690Z,16.05
2023-05-17T13:49:41.660Z,16.12
2023-05-17T13:50:41.645Z,16.11
2023-05-17T13:52:46.193Z,16.25
2023-05-17T13:53:45.678Z,16.39
2023-05-17T13:55:49.714Z,16.52
2023-05-17T13:56:49.900Z,16.52
2023-05-17T13:58:54.297Z,16.70
2023-05-17T13:59:53.738Z,16.78
2023-05-17T14:01:57.804Z,16.78
2023-05-17T14:02:57.856Z,16.75
2023-05-17T14:05:02.305Z,16.66
2023-05-17T14:06:01.832Z,16.61
2023-05-17T14:07:54.770Z,16.42
2023-05-17T14:08:54.763Z,16.35
2023-05-17T14:10:59.278Z,16.25
2023-05-17T14:12:00.985Z,16.15
2023-05-17T14:14:02.840Z,16.08
2023-05-17T14:15:02.826Z,16.12
2023-05-17T14:17:07.346Z,16.28
2023-05-17T14:18:06.917Z,16.24
2023-05-17T14:20:11.126Z,16.30
2023-05-17T14:21:10.881Z,16.50
2023-05-17T14:23:15.413Z,16.21
2023-05-17T14:24:14.909Z,16.21
2023-05-17T14:26:18.951Z,15.97
2023-05-17T14:27:18.947Z,15.87
2023-05-17T14:30:27.467Z,16.08
2023-05-17T14:31:26.945Z,16.17
2023-05-17T14:33:31.047Z,16.24
2023-05-17T14:34:30.975Z,16.35
2023-05-17T14:36:35.496Z,16.60
2023-05-17T14:37:35.005Z,16.75
2023-05-17T14:39:39.076Z,17.11
2023-05-17T14:40:39.038Z,17.22
2023-05-17T14:42:43.557Z,17.36
2023-05-17T14:43:43.076Z,17.41
2023-05-17T14:45:47.142Z,17.51
2023-05-17T14:46:47.117Z,17.56
2023-05-17T14:48:40.647Z,17.49
2023-05-17T14:49:40.073Z,17.31
2023-05-17T14:51:44.110Z,16.83